Nearby METAR Reports

KLNK - Lincoln, Nebraska, USA
Distance from station: WNW 8mi, 13km
Updated: Wed, 03-Mar-2021 6:54am CST
Clear
Clear
 Wind from calm
Wind: Calm
Temperature: 25°F , -4°C
Dew Point: 21°F , -6°C
Humidity: 86%
Barometer: 30.00 inHg , 1015.9 hPa
Clouds: Clear
Visibility: 10 miles , 16 km
2021/03/03 12:54 KLNK 031254Z 00000KT 10SM CLR M04/M06 A3000 RMK AO2 SLP165 T10391061
KAHQ - Wahoo, Nebraska, USA
Distance from station: N 31mi, 49km
Updated: Wed, 03-Mar-2021 7:15am CST
Clear
Clear
 Wind from calm
Wind: Calm
Temperature: 30°F , -1°C
Dew Point: 28°F , -2°C
Humidity: 93%
Barometer: 29.99 inHg , 1015.6 hPa
Clouds: Clear
Visibility: 10 miles , 16 km
2021/03/03 13:15 KAHQ 031315Z AUTO 00000KT 10SM CLR M01/M02 A2999 RMK AO2 T10151016
 
KBIE - Beatrice Municip, Nebraska, USA
Distance from station: S 36mi, 57km
Updated: Wed, 03-Mar-2021 7:15am CST
Clear
Clear
 Wind from calm
Wind: Calm
Temperature: 27°F , -3°C
Dew Point: 21°F , -6°C
Humidity: 80%
Barometer: 29.99 inHg , 1015.6 hPa
Clouds: Clear
Visibility: 10 miles , 16 km
2021/03/03 13:15 KBIE 031315Z AUTO 00000KT 10SM CLR M03/M06 A2999 RMK AO2 T10321060
KMLE - Omaha/Millard, Nebraska, USA
Distance from station: NE 39mi, 63km
Updated: Wed, 03-Mar-2021 7:15am CST
Clear
Clear
 Wind from W
Wind: W 3 mph , 6 km/h
Temperature: 30°F , -1°C
Dew Point: 27°F , -3°C
Humidity: 86%
Barometer: 29.99 inHg , 1015.6 hPa
Clouds: Clear
Visibility: 10 miles , 16 km
2021/03/03 13:15 KMLE 031315Z AUTO 27003KT 10SM CLR M01/M03 A2999 RMK AO2 T10131033
 
KPMV - Plattsmouth Muni, Nebraska, USA
Distance from station: ENE 39mi, 63km
Updated: Wed, 03-Mar-2021 7:15am CST
Clear
Clear
 Wind from calm
Wind: Calm
Temperature: 37°F , 3°C
Dew Point: 28°F , -2°C
Humidity: 70%
Barometer: 29.99 inHg , 1015.6 hPa
Clouds: Clear
Visibility: 10 miles , 16 km
2021/03/03 13:15 KPMV 031315Z AUTO 00000KT 10SM CLR 03/M02 A2999 RMK AO2 T00251021
KAFK - Nebraska City, Nebraska, USA
Distance from station: ESE 43mi, 69km
Updated: Wed, 03-Mar-2021 7:15am CST
Clear
Clear
 Wind from W
Wind: W 3 mph , 6 km/h
Temperature: 37°F , 3°C
Dew Point: 23°F , -5°C
Humidity: 56%
Barometer: 29.99 inHg , 1015.6 hPa
Clouds: Clear
Visibility: 10 miles , 16 km
2021/03/03 13:15 KAFK 031315Z AUTO 27003KT 10SM CLR 03/M05 A2999 RMK AO2 T00261055
 
KOFF - Offutt Afb/Belle, Nebraska, USA
Distance from station: ENE 44mi, 70km
Updated: Wed, 03-Mar-2021 6:56am CST
Clear
Clear
 Wind from calm
Wind: Calm
Temperature: 30°F , -1°C
Dew Point: 25°F , -4°C
Humidity: 80%
Barometer: 29.97 inHg , 1014.9 hPa
Clouds: Clear
Visibility: 10 miles , 16 km
2021/03/03 12:56 KOFF 031256Z AUTO 00000KT 10SM CLR M01/M04 A2997 RMK AO2 SLP162 T10101039 $
KFET - Fremont Muni Arp, Nebraska, USA
Distance from station: N 46mi, 74km
Updated: Wed, 03-Mar-2021 7:15am CST
Clear
Clear
 Wind from W
Wind: W 3 mph , 6 km/h
Temperature: 30°F , -1°C
Dew Point: 28°F , -2°C
Humidity: 93%
Barometer: 29.99 inHg , 1015.6 hPa
Clouds: Clear
Visibility: 10 miles , 16 km
2021/03/03 13:15 KFET 031315Z AUTO 28003KT 10SM CLR M01/M02 A2999 RMK AO2 T10091023
 
KBTA - Blair Muni, Nebraska, USA
Distance from station: NNE 51mi, 82km
Updated: Wed, 03-Mar-2021 7:15am CST
Clear
Clear
 Wind from NNE
Wind: NNE 3 mph , 6 km/h
Temperature: 41°F , 5°C
Dew Point: 32°F , 0°C
Humidity: 70%
Barometer: 29.98 inHg , 1015.2 hPa
Clouds: Clear
Visibility: 10 miles , 16 km
2021/03/03 13:15 KBTA 031315Z AUTO 02003KT 10SM CLR 05/00 A2998 RMK AO2 T00450002
KJYR - York, Nebraska, USA
Distance from station: W 52mi, 84km
Updated: Wed, 03-Mar-2021 7:15am CST
Clear
Clear
 Wind from calm
Wind: Calm
Temperature: 32°F , 0°C
Dew Point: 28°F , -2°C
Humidity: 87%
Barometer: 29.99 inHg , 1015.6 hPa
Clouds: Clear
Visibility: 10 miles , 16 km
2021/03/03 13:15 KJYR 031315Z AUTO 00000KT 10SM CLR M00/M02 A2999 RMK AO2
 
KOMA - Omaha/Eppley, Nebraska, USA
Distance from station: NE 53mi, 85km
Updated: Wed, 03-Mar-2021 6:52am CST
Few Clouds
Few Clouds
 Wind from NNW
Wind: NNW 3 mph , 6 km/h
Temperature: 28°F , -2°C
Dew Point: 27°F , -3°C
Humidity: 93%
Barometer: 29.98 inHg , 1015.2 hPa
Clouds: Few Clouds
Visibility: 10 miles , 16 km
Cloud details: Few Clouds 18000 ft
2021/03/03 12:52 KOMA 031252Z 33003KT 10SM FEW180 M02/M03 A2998 RMK AO2 SLP159 T10171033
KOLU - Columbus Muni, Nebraska, USA
Distance from station: NW 58mi, 93km
Updated: Wed, 03-Mar-2021 6:56am CST
Clear
Clear
 Wind from SW
Wind: SW 3 mph , 6 km/h
Temperature: 27°F , -3°C
Dew Point: 25°F , -4°C
Humidity: 93%
Barometer: 29.99 inHg , 1015.6 hPa
Clouds: Clear
Visibility: 10 miles , 16 km
2021/03/03 12:56 KOLU 031256Z AUTO 22003KT 10SM CLR M03/M04 A2999 RMK AO2 SLP168 T10331044 FZRANO